Time;durP1;ratioP1;P1;durP2;ratioP2;P2;SDS_P1;SDS_P2;PMS_P1;PMS_P2;Temp;Humidity;BMP_temperature;BMP_pressure;BME280_temperature;BME280_humidity;BME280_pressure;Samples;Min_cycle;Max_cycle;Signal;HPM_P1;HPM_P2
2022/09/12 00:00:14;;;;;;;5.20;4.28;;;;;;;12.37;100.00;96028.91;4972711;28;24824;-75
2022/09/12 00:02:41;;;;;;;4.70;3.50;;;;;;;12.38;100.00;96032.34;4972496;28;24449;-75
2022/09/12 00:05:09;;;;;;;15.10;3.90;;;;;;;12.43;100.00;96018.13;4968699;28;25007;-75
2022/09/12 00:07:35;;;;;;;15.38;3.50;;;;;;;12.49;100.00;96022.06;4971824;28;24449;-75
2022/09/12 00:10:02;;;;;;;6.63;3.47;;;;;;;12.24;100.00;96025.47;4972665;28;24527;-75
2022/09/12 00:12:28;;;;;;;12.18;4.15;;;;;;;12.11;100.00;96021.06;4969727;28;24528;-75
2022/09/12 00:14:54;;;;;;;6.15;4.05;;;;;;;12.02;100.00;96019.06;4972657;28;24446;-75
2022/09/12 00:17:21;;;;;;;4.05;3.65;;;;;;;12.02;100.00;96018.25;4969884;28;25030;-75
2022/09/12 00:19:47;;;;;;;5.80;3.55;;;;;;;12.03;100.00;96025.91;4970729;28;24436;-75
2022/09/12 00:22:15;;;;;;;7.80;3.30;;;;;;;12.05;100.00;96012.81;4966982;28;24449;-75
2022/09/12 00:24:42;;;;;;;11.38;3.50;;;;;;;12.00;100.00;96012.31;4971070;28;25002;-75
2022/09/12 00:27:08;;;;;;;11.93;3.00;;;;;;;12.07;100.00;96004.03;4971960;28;24440;-75
2022/09/12 00:29:35;;;;;;;5.68;3.10;;;;;;;11.96;100.00;96010.84;4971554;28;24995;-75
2022/09/12 00:32:02;;;;;;;4.60;3.17;;;;;;;11.89;100.00;96014.75;4964318;28;24813;-75
2022/09/12 00:34:28;;;;;;;6.67;3.50;;;;;;;11.81;100.00;96015.22;4972147;28;25060;-75
2022/09/12 00:36:55;;;;;;;3.30;3.00;;;;;;;11.73;100.00;96017.47;4970927;28;24987;-75
2022/09/12 00:39:23;;;;;;;5.40;3.50;;;;;;;11.69;100.00;96010.81;4971625;28;25070;-75
2022/09/12 00:41:49;;;;;;;5.68;3.42;;;;;;;11.60;100.00;96017.41;4965504;28;24441;-75
2022/09/12 00:44:48;;;;;;;4.63;3.50;;;;;;;11.52;100.00;96009.28;4971907;28;24441;-75
2022/09/12 00:47:23;;;;;;;6.22;2.80;;;;;;;11.52;100.00;96004.91;4971224;28;24808;-75
2022/09/12 00:49:55;;;;;;;3.30;2.83;;;;;;;11.46;100.00;96009.63;4971674;28;24450;-75
2022/09/12 00:52:27;;;;;;;4.05;3.03;;;;;;;11.52;100.00;96002.31;4968411;28;24465;-75
2022/09/12 00:54:59;;;;;;;8.68;2.72;;;;;;;11.47;100.00;95995.78;4969267;28;24441;-74
2022/09/12 00:57:30;;;;;;;4.65;2.40;;;;;;;11.44;100.00;95993.38;4963152;28;24445;-74
2022/09/12 00:59:59;;;;;;;2.72;2.40;;;;;;;11.34;100.00;95991.31;4971416;28;24444;-75
2022/09/12 01:02:27;;;;;;;3.28;2.47;;;;;;;11.32;100.00;95993.19;4971228;28;25038;-74
2022/09/12 01:04:54;;;;;;;5.25;2.97;;;;;;;11.29;100.00;95990.78;4971398;28;24437;-75
2022/09/12 01:07:21;;;;;;;3.38;3.08;;;;;;;11.25;100.00;95989.31;4970907;28;24445;-75
2022/09/12 01:09:50;;;;;;;8.13;3.50;;;;;;;11.31;100.00;95986.34;4970961;28;24508;-75
2022/09/12 01:12:17;;;;;;;4.30;2.60;;;;;;;11.27;100.00;95984.03;4971018;28;24540;-75
2022/09/12 01:14:44;;;;;;;7.50;2.40;;;;;;;11.25;100.00;95973.75;4968019;28;24442;-75
2022/09/12 01:17:13;;;;;;;9.25;2.80;;;;;;;11.23;100.00;95977.38;4968626;28;25253;-75
2022/09/12 01:20:06;;;;;;;4.32;2.50;;;;;;;11.24;100.00;95976.47;4968561;28;24444;-75
2022/09/12 01:22:57;;;;;;;5.78;2.58;;;;;;;11.27;100.00;95971.06;4966648;28;24442;-75
2022/09/12 01:25:30;;;;;;;3.65;2.97;;;;;;;11.21;100.00;95974.06;4965541;28;25017;-75
2022/09/12 01:28:26;;;;;;;4.15;2.50;;;;;;;11.23;100.00;95973.00;4970839;28;24464;-75
2022/09/12 01:31:01;;;;;;;8.43;3.22;;;;;;;11.24;100.00;95961.75;4970876;28;24453;-75
2022/09/12 01:33:35;;;;;;;14.45;2.50;;;;;;;11.20;100.00;95960.25;4967071;28;24436;-74
2022/09/12 01:36:24;;;;;;;2.80;2.55;;;;;;;11.28;100.00;95958.03;4968309;28;24440;-75
2022/09/12 01:38:59;;;;;;;6.25;2.50;;;;;;;11.33;100.00;95961.16;4961844;28;24457;-75
2022/09/12 01:41:29;;;;;;;8.00;2.72;;;;;;;11.21;100.00;95956.75;4963289;28;24438;-75
2022/09/12 01:44:05;;;;;;;2.50;2.30;;;;;;;11.14;100.00;95952.84;4967204;28;25014;-75
2022/09/12 01:46:39;;;;;;;3.15;2.70;;;;;;;11.29;100.00;95948.47;4967773;28;24434;-75
2022/09/12 01:49:12;;;;;;;3.22;2.95;;;;;;;11.39;100.00;95952.16;4965910;28;24751;-75
2022/09/12 01:51:42;;;;;;;3.05;2.30;;;;;;;11.48;100.00;95954.16;4967107;28;24441;-75
2022/09/12 01:54:14;;;;;;;3.53;2.58;;;;;;;11.45;100.00;95946.56;4970309;28;24437;-75
2022/09/12 01:56:42;;;;;;;4.70;2.97;;;;;;;11.51;100.00;95945.38;4968546;28;24443;-75
2022/09/12 01:59:14;;;;;;;3.72;2.90;;;;;;;11.45;100.00;95946.56;4970838;28;24430;-74
2022/09/12 02:01:46;;;;;;;3.30;3.00;;;;;;;11.38;100.00;95945.28;4968274;28;24453;-75
2022/09/12 02:04:17;;;;;;;6.97;3.00;;;;;;;11.46;100.00;95948.25;4970906;28;25064;-74
2022/09/12 02:06:48;;;;;;;3.65;2.90;;;;;;;11.50;100.00;95946.31;4968836;28;24430;-75
2022/09/12 02:09:21;;;;;;;7.10;2.60;;;;;;;11.45;100.00;95941.38;4971773;28;24534;-75
2022/09/12 02:11:52;;;;;;;7.95;2.85;;;;;;;11.31;100.00;95939.69;4970937;28;24438;-74
2022/09/12 02:14:23;;;;;;;3.38;2.47;;;;;;;11.23;100.00;95935.88;4966459;28;24441;-75
2022/09/12 02:16:55;;;;;;;2.63;2.42;;;;;;;11.19;100.00;95942.19;4970802;28;24429;-74
2022/09/12 02:19:27;;;;;;;4.70;2.40;;;;;;;11.25;100.00;95936.63;4970649;28;24522;-75
2022/09/12 02:21:56;;;;;;;5.47;2.50;;;;;;;11.30;100.00;95931.97;4970221;28;24993;-75
2022/09/12 02:24:39;;;;;;;9.20;2.58;;;;;;;11.16;100.00;95927.69;4970554;28;24436;-75
2022/09/12 02:27:11;;;;;;;7.47;2.67;;;;;;;11.00;100.00;95932.13;4963286;28;24438;-75
2022/09/12 02:29:37;;;;;;;5.55;2.60;;;;;;;10.81;100.00;95925.50;4970728;28;24449;-75
2022/09/12 02:32:14;;;;;;;5.53;2.38;;;;;;;10.92;100.00;95926.59;4968272;28;24448;-75
2022/09/12 02:34:48;;;;;;;5.72;2.40;;;;;;;10.86;100.00;95923.47;4966166;28;24473;-75
2022/09/12 02:37:24;;;;;;;8.07;2.58;;;;;;;10.74;100.00;95919.03;4962572;28;24796;-75
2022/09/12 02:39:54;;;;;;;5.95;1.92;;;;;;;10.74;100.00;95918.19;4968972;28;25068;-75
2022/09/12 02:42:20;;;;;;;6.93;2.20;;;;;;;10.65;100.00;95917.00;4964312;28;20915;-75
2022/09/12 02:44:47;;;;;;;4.50;2.00;;;;;;;10.62;100.00;95922.38;4962412;28;24504;-75
2022/09/12 02:47:20;;;;;;;6.03;2.10;;;;;;;10.62;100.00;95918.03;4964160;28;24441;-75
2022/09/12 02:49:47;;;;;;;7.13;2.15;;;;;;;10.54;100.00;95920.25;4969766;28;24548;-74
2022/09/12 02:52:13;;;;;;;2.25;2.05;;;;;;;10.48;100.00;95919.78;4968305;28;24450;-75
2022/09/12 02:54:40;;;;;;;7.05;1.80;;;;;;;10.46;100.00;95919.06;4969699;28;24449;-75
2022/09/12 02:57:16;;;;;;;2.20;2.00;;;;;;;10.48;100.00;95917.19;4970323;28;24430;-75
2022/09/12 02:59:42;;;;;;;4.50;1.70;;;;;;;10.50;100.00;95915.34;4972701;28;25092;-75
2022/09/12 03:02:26;;;;;;;8.83;2.20;;;;;;;10.51;100.00;95917.00;4973045;28;25770;-75
2022/09/12 03:05:13;;;;;;;8.80;2.40;;;;;;;10.57;100.00;95908.88;4972363;28;24541;-75
2022/09/12 03:07:57;;;;;;;4.03;2.63;;;;;;;10.66;100.00;95913.47;4972238;28;24430;-75
2022/09/12 03:10:31;;;;;;;9.45;2.97;;;;;;;10.64;100.00;95916.19;4972973;28;20793;-74
2022/09/12 03:13:09;;;;;;;31.90;3.40;;;;;;;10.41;100.00;95914.94;4965107;28;24474;-75
2022/09/12 03:15:46;;;;;;;18.77;3.28;;;;;;;10.43;100.00;95914.88;4969681;28;25010;-75
2022/09/12 03:18:23;;;;;;;7.63;2.88;;;;;;;10.52;100.00;95910.88;4970373;28;24811;-74
2022/09/12 03:20:58;;;;;;;3.88;2.47;;;;;;;10.64;100.00;95912.72;4971370;28;24437;-75
2022/09/12 03:23:32;;;;;;;4.95;2.50;;;;;;;10.73;100.00;95907.00;4971385;28;24445;-75
2022/09/12 03:26:03;;;;;;;5.93;2.13;;;;;;;10.78;100.00;95912.72;4969704;28;24442;-75
2022/09/12 03:28:33;;;;;;;5.32;1.80;;;;;;;10.97;100.00;95915.00;4972174;28;24440;-75
2022/09/12 03:30:59;;;;;;;4.60;1.90;;;;;;;10.89;100.00;95920.66;4971910;28;24457;-75
2022/09/12 03:33:27;;;;;;;8.70;1.80;;;;;;;10.73;100.00;95917.38;4971506;28;24528;-75
2022/09/12 03:35:55;;;;;;;7.28;1.90;;;;;;;10.88;100.00;95918.19;4971931;28;24799;-75
2022/09/12 03:38:21;;;;;;;5.47;1.73;;;;;;;10.87;100.00;95921.72;4971266;28;25006;-75
2022/09/12 03:40:48;;;;;;;6.78;2.05;;;;;;;10.68;100.00;95906.47;4971606;28;24510;-75
2022/09/12 03:43:14;;;;;;;4.53;2.35;;;;;;;10.63;100.00;95911.06;4972089;28;24449;-75
2022/09/12 03:45:40;;;;;;;4.73;2.07;;;;;;;10.51;100.00;95907.47;4972812;28;25049;-75
2022/09/12 03:48:07;;;;;;;8.00;2.33;;;;;;;10.52;100.00;95905.72;4972229;28;24460;-74
2022/09/12 03:50:35;;;;;;;2.38;2.17;;;;;;;10.46;100.00;95916.47;4969880;28;24457;-75
2022/09/12 03:53:02;;;;;;;8.18;2.17;;;;;;;10.42;100.00;95913.22;4972359;28;20789;-75
2022/09/12 03:55:28;;;;;;;9.48;2.22;;;;;;;10.26;100.00;95910.69;4976757;28;24484;-75
2022/09/12 03:57:55;;;;;;;10.25;2.25;;;;;;;10.18;100.00;95903.34;4967976;28;24828;-75
2022/09/12 04:00:22;;;;;;;11.63;2.00;;;;;;;10.14;100.00;95911.38;4972954;28;20778;-75
2022/09/12 04:02:54;;;;;;;10.20;2.33;;;;;;;10.16;100.00;95906.97;4972458;28;20789;-75
2022/09/12 04:05:20;;;;;;;5.15;2.40;;;;;;;10.22;100.00;95914.34;4970758;28;20775;-75
2022/09/12 04:07:48;;;;;;;5.97;2.45;;;;;;;10.22;100.00;95910.94;4972281;28;24437;-75
2022/09/12 04:10:14;;;;;;;3.78;2.20;;;;;;;10.41;100.00;95908.94;4969526;28;20796;-75
2022/09/12 04:12:41;;;;;;;2.40;2.20;;;;;;;10.45;100.00;95909.59;4971959;28;24453;-75
2022/09/12 04:15:09;;;;;;;4.22;2.13;;;;;;;10.28;100.00;95911.44;4968585;28;25010;-75
2022/09/12 04:17:35;;;;;;;4.07;2.33;;;;;;;10.19;100.00;95906.75;4973925;28;24456;-75
2022/09/12 04:20:02;;;;;;;10.52;2.50;;;;;;;10.09;100.00;95909.06;4974084;28;20782;-75
2022/09/12 04:22:30;;;;;;;4.15;2.05;;;;;;;10.07;100.00;95903.16;4972270;28;25047;-75
2022/09/12 04:24:58;;;;;;;4.82;2.10;;;;;;;9.96;100.00;95915.06;4971500;28;24537;-75
2022/09/12 04:27:25;;;;;;;6.20;2.00;;;;;;;9.87;100.00;95909.50;4971273;28;21194;-75
2022/09/12 04:29:53;;;;;;;5.32;2.40;;;;;;;10.06;100.00;95908.44;4964324;28;21181;-75
2022/09/12 04:32:20;;;;;;;7.55;2.17;;;;;;;9.94;100.00;95903.03;4971582;28;20852;-75
2022/09/12 04:34:47;;;;;;;2.15;1.95;;;;;;;10.04;100.00;95907.66;4967572;28;21337;-75
2022/09/12 04:37:14;;;;;;;6.97;2.03;;;;;;;10.14;100.00;95903.63;4972301;28;24466;-75
2022/09/12 04:39:41;;;;;;;6.43;2.30;;;;;;;9.95;100.00;95903.88;4971861;28;24517;-75
2022/09/12 04:42:08;;;;;;;3.70;2.10;;;;;;;10.03;100.00;95904.25;4971546;28;24520;-74
2022/09/12 04:44:35;;;;;;;3.22;2.30;;;;;;;10.11;100.00;95902.03;4970663;28;24987;-74
2022/09/12 04:47:02;;;;;;;7.93;2.72;;;;;;;9.86;100.00;95902.66;4971610;28;24465;-77
2022/09/12 04:49:28;;;;;;;8.45;2.80;;;;;;;9.76;100.00;95895.50;4971714;28;20781;-74
2022/09/12 04:51:55;;;;;;;4.15;2.75;;;;;;;9.60;100.00;95890.38;4968300;28;25240;-74
2022/09/12 04:54:21;;;;;;;5.65;2.88;;;;;;;9.69;100.00;95884.69;4967644;28;24444;-73
2022/09/12 04:56:50;;;;;;;8.23;2.58;;;;;;;9.74;100.00;95895.59;4970873;28;24520;-74
2022/09/12 04:59:20;;;;;;;9.25;2.38;;;;;;;9.67;100.00;95891.69;4971390;28;20820;-74
2022/09/12 05:01:47;;;;;;;6.75;2.45;;;;;;;9.65;100.00;95898.72;4968380;28;20823;-74
2022/09/12 05:04:14;;;;;;;7.85;2.30;;;;;;;9.68;100.00;95893.38;4971779;28;21378;-74
2022/09/12 05:06:42;;;;;;;9.88;2.55;;;;;;;9.63;100.00;95903.94;4970767;28;20785;-74
2022/09/12 05:09:11;;;;;;;4.22;2.70;;;;;;;9.62;100.00;95901.47;4973520;28;24669;-74
2022/09/12 05:11:40;;;;;;;6.93;2.40;;;;;;;9.58;100.00;95902.56;4976009;28;20813;-74
2022/09/12 05:14:06;;;;;;;5.88;2.45;;;;;;;9.56;100.00;95891.47;4967639;28;20827;-74
2022/09/12 05:16:34;;;;;;;3.20;2.10;;;;;;;9.57;100.00;95899.16;4971855;28;24460;-74
2022/09/12 05:19:01;;;;;;;9.05;2.15;;;;;;;9.60;100.00;95904.16;4971876;28;20820;-74
2022/09/12 05:21:28;;;;;;;3.15;2.67;;;;;;;9.66;100.00;95900.38;4971451;28;24438;-74
2022/09/12 05:23:56;;;;;;;6.28;2.72;;;;;;;9.75;100.00;95910.19;4971487;28;20777;-74
2022/09/12 05:26:23;;;;;;;13.27;3.08;;;;;;;9.80;100.00;95905.59;4971891;28;24456;-76
2022/09/12 05:28:51;;;;;;;6.82;2.45;;;;;;;9.82;100.00;95913.25;4971141;28;24995;-74
2022/09/12 05:31:20;;;;;;;20.67;2.90;;;;;;;9.72;100.00;95907.78;4971456;28;24484;-74
2022/09/12 05:33:50;;;;;;;6.15;2.40;;;;;;;9.75;100.00;95914.53;4971358;28;24429;-74
2022/09/12 05:36:18;;;;;;;20.95;2.80;;;;;;;9.70;100.00;95909.63;4965025;28;25232;-74
2022/09/12 05:38:45;;;;;;;13.73;2.67;;;;;;;9.71;100.00;95911.28;4971554;28;24429;-73
2022/09/12 05:41:13;;;;;;;21.85;2.75;;;;;;;9.72;100.00;95912.13;4964492;28;24444;-73
2022/09/12 05:43:41;;;;;;;60.75;3.35;;;;;;;9.49;100.00;95911.66;4971086;28;24441;-73
2022/09/12 05:46:11;;;;;;;16.67;2.58;;;;;;;9.63;100.00;95916.88;4963980;28;24430;-74
2022/09/12 05:48:38;;;;;;;9.27;2.42;;;;;;;9.61;100.00;95910.97;4973488;28;24839;-70
2022/09/12 05:51:09;;;;;;;4.03;2.50;;;;;;;9.82;100.00;95914.06;4959325;28;24453;-76
2022/09/12 05:53:36;;;;;;;4.65;2.63;;;;;;;9.95;100.00;95911.63;4971438;28;24465;-76
2022/09/12 05:56:08;;;;;;;6.10;2.60;;;;;;;9.93;100.00;95911.69;4971675;28;24437;-76
2022/09/12 05:58:36;;;;;;;13.50;3.10;;;;;;;9.94;100.00;95918.56;4969937;28;24437;-76
2022/09/12 06:01:06;;;;;;;13.10;2.97;;;;;;;9.99;100.00;95923.47;4971896;28;24441;-76
2022/09/12 06:03:32;;;;;;;4.72;2.53;;;;;;;10.09;100.00;95916.00;4971298;28;24433;-77
2022/09/12 06:06:02;;;;;;;3.28;2.70;;;;;;;10.22;100.00;95916.94;4971795;28;25141;-77
2022/09/12 06:08:30;;;;;;;5.10;2.80;;;;;;;10.30;100.00;95914.75;4972242;28;24466;-76
2022/09/12 06:11:01;;;;;;;3.55;2.72;;;;;;;10.35;100.00;95917.09;4976437;28;24465;-74
2022/09/12 06:13:28;;;;;;;12.43;3.10;;;;;;;10.18;100.00;95920.63;4978230;28;24488;-78
2022/09/12 06:15:54;;;;;;;5.37;2.73;;;;;;;10.16;100.00;95920.75;4976806;28;25047;-79
2022/09/12 06:18:21;;;;;;;3.20;2.90;;;;;;;10.34;100.00;95921.41;4976111;28;24461;-77
2022/09/12 06:20:47;;;;;;;5.97;3.83;;;;;;;10.40;100.00;95917.66;4971124;28;24432;-76
2022/09/12 06:23:14;;;;;;;3.50;3.20;;;;;;;10.67;100.00;95920.31;4970770;28;25064;-74
2022/09/12 06:25:48;;;;;;;6.68;3.85;;;;;;;10.86;100.00;95923.47;4970984;28;24441;-74
2022/09/12 06:28:14;;;;;;;4.03;3.63;;;;;;;11.02;100.00;95923.34;4970712;28;25087;-74
2022/09/12 06:30:41;;;;;;;4.07;3.55;;;;;;;11.13;100.00;95914.91;4970295;28;24460;-74
2022/09/12 06:33:08;;;;;;;8.93;4.00;;;;;;;11.21;100.00;95922.22;4970776;28;24805;-74
2022/09/12 06:35:36;;;;;;;5.45;3.50;;;;;;;11.33;100.00;95922.25;4974295;28;24971;-74
2022/09/12 06:38:02;;;;;;;5.75;3.58;;;;;;;11.35;100.00;95919.59;4974373;28;24791;-74
2022/09/12 06:40:29;;;;;;;10.88;3.67;;;;;;;11.46;100.00;95918.88;4974505;28;24433;-73
2022/09/12 06:42:57;;;;;;;5.13;3.80;;;;;;;11.31;100.00;95916.34;4973978;28;24469;-73
2022/09/12 06:45:24;;;;;;;8.23;3.75;;;;;;;11.15;100.00;95921.66;4974365;28;24444;-73
2022/09/12 06:47:51;;;;;;;9.52;3.60;;;;;;;11.11;100.00;95927.94;4974208;28;24967;-73
2022/09/12 06:50:17;;;;;;;5.93;3.78;;;;;;;11.06;100.00;95919.66;4974042;28;25005;-73
2022/09/12 06:52:44;;;;;;;4.10;3.70;;;;;;;11.24;100.00;95919.44;4973989;28;24821;-73
2022/09/12 06:55:11;;;;;;;4.95;3.95;;;;;;;11.36;100.00;95914.28;4968902;28;24433;-74
2022/09/12 06:57:37;;;;;;;4.45;4.05;;;;;;;11.49;100.00;95919.50;4973832;28;24429;-74
2022/09/12 07:00:06;;;;;;;4.28;3.88;;;;;;;11.92;100.00;95921.13;4971903;28;24441;-73
2022/09/12 07:02:33;;;;;;;5.70;4.25;;;;;;;12.01;100.00;95915.31;4974067;28;24430;-74
2022/09/12 07:04:59;;;;;;;5.50;4.45;;;;;;;12.18;100.00;95919.41;4973922;28;24839;-74
2022/09/12 07:07:26;;;;;;;5.00;4.60;;;;;;;12.25;100.00;95916.28;4973963;28;24469;-74
2022/09/12 07:09:52;;;;;;;5.40;4.40;;;;;;;12.30;100.00;95911.63;4973635;28;24425;-74
2022/09/12 07:12:19;;;;;;;4.70;4.30;;;;;;;12.71;100.00;95910.56;4973653;28;24547;-73
2022/09/12 07:14:45;;;;;;;4.53;4.13;;;;;;;12.67;100.00;95914.31;4974053;28;24481;-74
2022/09/12 07:17:13;;;;;;;4.95;3.78;;;;;;;12.77;100.00;95912.75;4968945;28;24433;-73
2022/09/12 07:19:40;;;;;;;4.05;3.75;;;;;;;12.96;100.00;95914.91;4973492;28;24784;-73
2022/09/12 07:22:06;;;;;;;4.30;3.90;;;;;;;13.14;100.00;95917.16;4973636;28;24440;-73
2022/09/12 07:24:33;;;;;;;5.80;4.20;;;;;;;13.27;100.00;95910.16;4973610;28;24792;-74
2022/09/12 07:26:59;;;;;;;5.22;4.15;;;;;;;13.48;100.00;95910.41;4972779;28;24442;-74
2022/09/12 07:29:26;;;;;;;5.88;4.60;;;;;;;13.68;100.00;95904.59;4971939;28;24434;-73
2022/09/12 07:31:52;;;;;;;6.72;5.70;;;;;;;13.80;100.00;95910.66;4973137;28;24468;-74
2022/09/12 07:34:20;;;;;;;7.15;5.43;;;;;;;14.06;100.00;95906.13;4971855;28;25017;-74
2022/09/12 07:36:46;;;;;;;5.70;5.20;;;;;;;14.49;100.00;95906.34;4973264;28;24444;-73
2022/09/12 07:39:13;;;;;;;5.30;4.80;;;;;;;14.97;100.00;95900.09;4973125;28;24440;-73
2022/09/12 07:41:39;;;;;;;5.93;5.20;;;;;;;15.10;100.00;95911.22;4973200;28;24441;-74
2022/09/12 07:44:06;;;;;;;5.80;5.20;;;;;;;15.10;100.00;95911.22;4971526;28;24437;-74
2022/09/12 07:46:34;;;;;;;6.10;5.10;;;;;;;15.12;100.00;95905.88;4972372;28;24517;-73
2022/09/12 07:49:01;;;;;;;6.07;5.00;;;;;;;14.85;100.00;95907.09;4973200;28;24434;-74
2022/09/12 07:51:30;;;;;;;5.80;5.00;;;;;;;14.60;100.00;95908.13;4972922;28;24557;-74
2022/09/12 07:53:57;;;;;;;4.95;4.40;;;;;;;14.60;100.00;95908.13;4972697;28;24440;-74
2022/09/12 07:56:26;;;;;;;6.07;5.07;;;;;;;14.43;100.00;95905.97;4973051;28;24437;-74
2022/09/12 07:58:52;;;;;;;9.70;4.50;;;;;;;14.79;100.00;95906.72;4972958;28;24759;-73
2022/09/12 08:01:20;;;;;;;4.82;4.15;;;;;;;15.01;100.00;95898.88;4972692;28;25006;-73
2022/09/12 08:03:49;;;;;;;5.47;4.50;;;;;;;15.17;100.00;95895.94;4972684;28;24440;-73
2022/09/12 08:06:19;;;;;;;5.30;4.80;;;;;;;15.40;100.00;95892.31;4973169;28;24556;-73
2022/09/12 08:08:47;;;;;;;5.17;4.47;;;;;;;15.98;100.00;95905.03;4972763;28;24515;-73
2022/09/12 08:11:15;;;;;;;4.70;4.30;;;;;;;16.24;100.00;95907.28;4972832;28;24453;-73
2022/09/12 08:13:43;;;;;;;6.63;4.25;;;;;;;16.62;100.00;95904.91;4972839;28;24452;-73
2022/09/12 08:16:13;;;;;;;6.20;4.55;;;;;;;16.69;100.00;95916.53;4973006;28;24437;-73
2022/09/12 08:18:40;;;;;;;5.38;4.40;;;;;;;16.74;100.00;95913.53;4973166;28;24430;-73
2022/09/12 08:21:11;;;;;;;5.20;4.10;;;;;;;16.75;100.00;95909.94;4972179;28;24516;-74
2022/09/12 08:23:38;;;;;;;6.85;4.22;;;;;;;16.56;100.00;95920.28;4972569;28;24432;-73
2022/09/12 08:26:07;;;;;;;4.57;3.50;;;;;;;16.75;100.00;95911.75;4966884;28;24441;-74
2022/09/12 08:28:35;;;;;;;4.00;3.60;;;;;;;16.65;100.00;95920.34;4972735;28;24437;-73
2022/09/12 08:31:03;;;;;;;3.50;3.20;;;;;;;16.44;100.00;95907.28;4971999;28;24468;-73
2022/09/12 08:33:31;;;;;;;5.07;3.60;;;;;;;16.49;100.00;95916.53;4972000;28;24517;-73
2022/09/12 08:36:04;;;;;;;6.13;3.50;;;;;;;16.53;100.00;95910.91;4972415;28;24488;-74
2022/09/12 08:38:30;;;;;;;3.85;3.40;;;;;;;16.50;100.00;95911.19;4972405;28;24516;-73
2022/09/12 08:41:03;;;;;;;4.90;3.40;;;;;;;16.86;100.00;95912.47;4972315;28;24434;-73
2022/09/12 08:43:47;;;;;;;5.05;3.40;;;;;;;17.19;100.00;95913.16;4959920;28;25094;-73
2022/09/12 08:46:18;;;;;;;3.92;3.30;;;;;;;17.28;100.00;95904.50;4968562;28;24541;-74
2022/09/12 08:48:46;;;;;;;4.93;3.17;;;;;;;17.58;100.00;95911.47;4971972;28;24465;-73
2022/09/12 08:51:15;;;;;;;4.05;3.03;;;;;;;17.80;99.78;95905.16;4971807;28;24434;-74
2022/09/12 08:53:43;;;;;;;4.80;3.00;;;;;;;18.06;98.20;95902.81;4971747;28;24788;-74
2022/09/12 08:56:11;;;;;;;4.10;2.85;;;;;;;18.37;96.38;95902.63;4965788;28;24441;-74
2022/09/12 08:58:42;;;;;;;3.70;3.00;;;;;;;18.00;98.06;95906.00;4968310;28;24465;-74
2022/09/12 09:01:17;;;;;;;5.00;3.30;;;;;;;18.11;98.02;95912.88;4956227;28;24999;-74
2022/09/12 09:04:09;;;;;;;2.87;2.60;;;;;;;18.07;97.09;95904.47;4971923;28;24761;-73
2022/09/12 09:06:58;;;;;;;3.45;2.55;;;;;;;18.62;97.75;95901.22;4971787;28;24522;-73
2022/09/12 09:09:38;;;;;;;2.75;2.40;;;;;;;18.94;93.92;95908.69;4971626;28;24796;-74
2022/09/12 09:12:12;;;;;;;5.32;2.42;;;;;;;18.98;92.16;95899.56;4971506;28;24552;-74
2022/09/12 09:15:23;;;;;;;3.85;2.90;;;;;;;18.69;92.46;95904.06;4971568;28;24434;-74
2022/09/12 09:17:54;;;;;;;6.07;2.60;;;;;;;18.76;92.42;95905.19;4971613;28;24464;-73
2022/09/12 09:20:28;;;;;;;2.60;2.40;;;;;;;18.75;92.17;95895.66;4971560;28;24444;-74
2022/09/12 09:22:58;;;;;;;2.83;2.28;;;;;;;18.73;89.41;95895.00;4971210;28;24548;-74
2022/09/12 09:25:29;;;;;;;2.90;2.10;;;;;;;19.13;88.87;95899.91;4971406;28;24438;-74
2022/09/12 09:28:01;;;;;;;4.70;2.20;;;;;;;19.16;86.49;95897.00;4971505;28;24432;-73
2022/09/12 09:30:29;;;;;;;4.07;2.30;;;;;;;19.17;85.11;95900.44;4971198;28;24987;-74
2022/09/12 09:33:00;;;;;;;2.08;1.88;;;;;;;19.39;85.25;95902.66;4970962;28;24465;-74
2022/09/12 09:35:37;;;;;;;3.08;1.88;;;;;;;19.98;82.94;95895.25;4971427;28;24798;-74
2022/09/12 09:38:16;;;;;;;3.80;1.83;;;;;;;19.87;80.36;95905.97;4970184;28;24433;-74
2022/09/12 09:40:53;;;;;;;3.10;1.95;;;;;;;19.73;81.27;95902.91;4970984;28;24832;-74
2022/09/12 09:43:22;;;;;;;5.13;2.20;;;;;;;19.73;81.81;95910.81;4965153;28;24437;-74
2022/09/12 09:45:52;;;;;;;2.20;1.70;;;;;;;19.73;80.84;95909.97;4971387;28;24436;-74
2022/09/12 09:48:22;;;;;;;6.45;2.20;;;;;;;19.94;77.23;95907.03;4971280;28;24836;-74
2022/09/12 09:50:50;;;;;;;2.00;1.50;;;;;;;20.29;76.26;95901.75;4970845;28;24975;-74
2022/09/12 09:53:29;;;;;;;2.58;1.60;;;;;;;20.95;74.25;95903.03;4970893;28;24472;-74
2022/09/12 09:55:56;;;;;;;1.92;1.73;;;;;;;21.25;71.31;95900.84;4970888;28;24827;-74
2022/09/12 09:58:31;;;;;;;5.65;1.58;;;;;;;21.41;71.31;95903.56;4971268;28;24437;-74
2022/09/12 10:01:03;;;;;;;5.18;1.40;;;;;;;21.27;69.13;95898.88;4971268;28;24990;-74
2022/09/12 10:03:32;;;;;;;1.55;1.33;;;;;;;21.23;70.49;95897.53;4971060;28;24425;-74
2022/09/12 10:06:00;;;;;;;2.67;1.63;;;;;;;21.36;69.25;95899.75;4970908;28;24437;-74
2022/09/12 10:08:29;;;;;;;3.13;1.50;;;;;;;21.78;72.52;95888.34;4970223;28;24441;-74
2022/09/12 10:10:59;;;;;;;2.05;1.50;;;;;;;22.06;67.49;95889.66;4970786;28;24448;-74
2022/09/12 10:13:34;;;;;;;2.97;1.45;;;;;;;22.01;65.20;95893.78;4970506;28;24468;-74
2022/09/12 10:16:05;;;;;;;2.67;1.30;;;;;;;21.72;64.54;95895.06;4968773;28;24441;-74
2022/09/12 10:18:37;;;;;;;2.50;1.50;;;;;;;22.02;66.06;95892.78;4970735;28;24521;-74
2022/09/12 10:21:15;;;;;;;1.88;1.50;;;;;;;21.90;65.31;95881.75;4968628;28;24429;-74
2022/09/12 10:23:43;;;;;;;1.77;1.30;;;;;;;21.79;66.00;95879.44;4970708;28;24502;-74
2022/09/12 10:26:12;;;;;;;2.08;1.30;;;;;;;21.93;64.10;95887.53;4964390;28;24460;-74
2022/09/12 10:28:41;;;;;;;2.25;1.63;;;;;;;22.65;68.28;95882.38;4970853;28;24461;-74
2022/09/12 10:31:13;;;;;;;1.90;1.27;;;;;;;22.98;64.18;95873.59;4969913;28;24441;-74
2022/09/12 10:33:43;;;;;;;2.40;1.30;;;;;;;22.72;61.89;95877.25;4970591;28;24461;-74
2022/09/12 10:36:11;;;;;;;2.45;1.27;;;;;;;22.78;64.33;95876.59;4970353;28;24972;-74
2022/09/12 10:38:37;;;;;;;2.60;1.40;;;;;;;22.78;61.14;95876.59;4970459;28;24441;-74
2022/09/12 10:41:07;;;;;;;2.03;1.33;;;;;;;22.60;59.97;95868.88;4969650;28;24430;-74
2022/09/12 10:43:36;;;;;;;2.20;1.33;;;;;;;22.56;63.78;95872.03;4970584;28;24433;-75
2022/09/12 10:46:24;;;;;;;1.27;1.10;;;;;;;22.75;63.77;95868.19;4970629;28;24461;-74
2022/09/12 10:48:52;;;;;;;1.60;1.40;;;;;;;22.78;58.62;95871.31;4956723;28;24442;-74
2022/09/12 10:51:27;;;;;;;1.55;1.20;;;;;;;22.13;60.67;95859.00;4970560;28;24440;-74
2022/09/12 10:53:56;;;;;;;1.25;1.10;;;;;;;21.74;61.61;95866.75;4970317;28;24458;-74
2022/09/12 10:56:25;;;;;;;1.80;1.40;;;;;;;21.62;61.46;95862.78;4970855;28;24833;-74
2022/09/12 10:59:07;;;;;;;1.35;1.10;;;;;;;22.08;62.97;95857.84;4970252;28;24437;-74
2022/09/12 11:01:40;;;;;;;1.58;1.00;;;;;;;22.66;59.66;95854.19;4970646;28;24456;-74
2022/09/12 11:04:27;;;;;;;2.65;1.00;;;;;;;22.60;58.50;95845.13;4968162;28;24442;-75
2022/09/12 11:07:15;;;;;;;1.50;1.10;;;;;;;22.05;59.48;95840.53;4970370;28;25050;-74
2022/09/12 11:09:49;;;;;;;1.55;1.10;;;;;;;22.21;61.92;95845.00;4967144;28;24465;-74
2022/09/12 11:12:24;;;;;;;1.33;0.90;;;;;;;22.56;57.10;95838.53;4970236;28;24465;-74
2022/09/12 11:15:08;;;;;;;1.40;1.00;;;;;;;22.47;56.29;95836.88;4970502;28;24448;-74
2022/09/12 11:17:50;;;;;;;0.80;0.70;;;;;;;22.39;53.69;95834.28;4973042;28;24511;-74
2022/09/12 11:20:38;;;;;;;2.83;0.90;;;;;;;22.35;56.84;95831.13;4968732;28;25058;-74
2022/09/12 11:23:41;;;;;;;3.03;0.93;;;;;;;22.65;54.63;95836.69;4966385;28;24460;-74
2022/09/12 11:26:22;;;;;;;1.10;0.90;;;;;;;22.21;52.89;95834.44;4941399;28;24421;-74
2022/09/12 11:28:59;;;;;;;1.23;0.88;;;;;;;22.15;52.92;95835.97;4971266;28;24465;-74
2022/09/12 11:31:59;;;;;;;0.80;0.60;;;;;;;22.61;51.55;95833.56;4973679;28;24444;-74
2022/09/12 11:34:36;;;;;;;1.08;0.80;;;;;;;22.48;56.16;95827.19;4968519;28;24430;-74
2022/09/12 11:37:18;;;;;;;0.82;0.70;;;;;;;22.92;52.22;95828.38;4973301;28;24452;-74
2022/09/12 11:39:47;;;;;;;1.38;0.90;;;;;;;23.05;51.22;95830.47;4973391;28;24441;-74
2022/09/12 11:42:22;;;;;;;1.20;0.60;;;;;;;22.73;51.05;95833.19;4973108;28;24532;-74